createdAt,value
2024-03-06T00:01:58.973Z,7.30
2024-03-06T00:04:26.429Z,7.30
2024-03-06T00:06:55.149Z,7.30
2024-03-06T00:09:24.705Z,7.30
2024-03-06T00:11:53.924Z,7.40
2024-03-06T00:14:23.212Z,7.30
2024-03-06T00:16:53.682Z,7.20
2024-03-06T00:19:22.915Z,7.20
2024-03-06T00:21:51.168Z,7.20
2024-03-06T00:24:18.408Z,7.20
2024-03-06T00:26:46.455Z,7.30
2024-03-06T00:29:14.000Z,7.30
2024-03-06T00:31:45.343Z,7.20
2024-03-06T00:34:17.251Z,7.20
2024-03-06T00:36:45.027Z,7.30
2024-03-06T00:39:17.332Z,7.30
2024-03-06T00:41:44.358Z,7.30
2024-03-06T00:44:11.908Z,7.30
2024-03-06T00:46:41.063Z,7.30
2024-03-06T00:49:08.135Z,7.30
2024-03-06T00:51:44.903Z,7.30
2024-03-06T00:54:16.285Z,7.20
2024-03-06T00:56:44.749Z,7.20
2024-03-06T00:59:12.568Z,7.20
2024-03-06T01:01:39.721Z,7.10
2024-03-06T01:04:07.465Z,7.10
2024-03-06T01:06:34.750Z,6.90
2024-03-06T01:09:02.680Z,6.80
2024-03-06T01:11:29.669Z,6.70
2024-03-06T01:13:57.046Z,6.60
2024-03-06T01:16:24.226Z,6.50
2024-03-06T01:18:51.249Z,6.50
2024-03-06T01:21:18.448Z,6.50
2024-03-06T01:23:45.602Z,6.60
2024-03-06T01:26:15.315Z,6.60
2024-03-06T01:28:43.684Z,6.70
2024-03-06T01:31:11.828Z,6.70
2024-03-06T01:33:39.532Z,6.70
2024-03-06T01:36:08.031Z,6.70
2024-03-06T01:38:35.605Z,6.70
2024-03-06T01:41:02.906Z,6.60
2024-03-06T01:43:29.925Z,6.60
2024-03-06T01:45:56.954Z,6.60
2024-03-06T01:48:30.581Z,6.60
2024-03-06T01:51:00.719Z,6.60
2024-03-06T01:53:31.857Z,6.60
2024-03-06T01:55:59.467Z,6.60
2024-03-06T01:58:26.445Z,6.50
2024-03-06T02:03:22.490Z,6.40
2024-03-06T02:05:54.197Z,6.30
2024-03-06T02:08:21.380Z,6.30
2024-03-06T02:10:48.768Z,6.20
2024-03-06T02:13:16.559Z,6.20
2024-03-06T02:15:45.564Z,6.20
2024-03-06T02:18:12.702Z,6.10
2024-03-06T02:20:41.891Z,6.10
2024-03-06T02:23:09.548Z,6.10
2024-03-06T02:25:37.071Z,6.10
2024-03-06T02:28:04.402Z,6.10
2024-03-06T02:30:37.477Z,6.20
2024-03-06T02:33:05.438Z,6.20
2024-03-06T02:35:32.506Z,6.20
2024-03-06T02:38:01.265Z,6.20
2024-03-06T02:40:28.333Z,6.20
2024-03-06T02:42:58.346Z,6.20
2024-03-06T02:45:27.854Z,6.20
2024-03-06T02:47:55.922Z,6.20
2024-03-06T02:50:24.545Z,6.20
2024-03-06T02:52:53.141Z,6.30
2024-03-06T02:55:20.780Z,6.30
2024-03-06T03:00:30.843Z,6.30
2024-03-06T03:02:58.064Z,6.30
2024-03-06T03:05:25.372Z,6.30
2024-03-06T03:07:54.874Z,6.30
2024-03-06T03:10:22.023Z,6.30
2024-03-06T03:12:49.125Z,6.30
2024-03-06T03:15:16.349Z,6.30
2024-03-06T03:17:43.610Z,6.30
2024-03-06T03:20:11.661Z,6.40
2024-03-06T03:22:40.820Z,6.40
2024-03-06T03:25:14.624Z,6.40
2024-03-06T03:27:42.326Z,6.30
2024-03-06T03:30:10.241Z,6.30
2024-03-06T03:32:38.170Z,6.30
2024-03-06T03:35:06.833Z,6.30
2024-03-06T03:37:34.788Z,6.30
2024-03-06T03:40:01.999Z,6.40
2024-03-06T03:42:29.183Z,6.40
2024-03-06T03:44:56.308Z,6.40
2024-03-06T03:47:23.523Z,6.40
2024-03-06T03:50:02.678Z,6.40
2024-03-06T03:52:37.147Z,6.30
2024-03-06T03:55:04.912Z,6.30
2024-03-06T03:57:32.211Z,6.30
2024-03-06T03:59:59.533Z,6.20
2024-03-06T04:02:26.582Z,6.20
2024-03-06T04:04:54.927Z,6.10
2024-03-06T04:07:22.093Z,6.10
2024-03-06T04:09:49.223Z,6.00
2024-03-06T04:12:17.126Z,6.00
2024-03-06T04:14:44.920Z,5.90
2024-03-06T04:17:11.963Z,5.90
2024-03-06T04:19:38.897Z,5.90
2024-03-06T04:22:06.995Z,5.90
2024-03-06T04:24:34.034Z,5.90
2024-03-06T04:27:00.974Z,5.80
2024-03-06T04:29:27.867Z,5.80
2024-03-06T04:31:55.044Z,5.80
2024-03-06T04:34:21.968Z,5.80
2024-03-06T04:36:48.928Z,5.80
2024-03-06T04:39:15.922Z,5.80
2024-03-06T04:41:42.786Z,5.80
2024-03-06T04:44:09.850Z,5.70
2024-03-06T04:46:36.806Z,5.70
2024-03-06T04:49:04.518Z,5.60
2024-03-06T04:51:31.507Z,5.50
2024-03-06T04:53:58.411Z,5.40
2024-03-06T04:56:25.748Z,5.40
2024-03-06T04:58:53.870Z,5.30
2024-03-06T05:01:20.872Z,5.20
2024-03-06T05:58:56.199Z,4.20
2024-03-06T06:01:23.356Z,4.20
2024-03-06T06:03:50.780Z,4.20
2024-03-06T06:06:18.749Z,4.20
2024-03-06T06:08:46.204Z,4.20
2024-03-06T06:11:14.009Z,4.20
2024-03-06T06:13:41.212Z,4.30
2024-03-06T06:16:08.310Z,4.30
2024-03-06T06:18:35.290Z,4.30
2024-03-06T06:21:08.643Z,4.40
2024-03-06T06:23:36.380Z,4.40
2024-03-06T06:26:03.364Z,4.40
2024-03-06T06:28:33.327Z,4.40
2024-03-06T06:31:00.358Z,4.40
2024-03-06T06:33:27.453Z,4.50
2024-03-06T06:35:55.328Z,4.60
2024-03-06T06:38:23.012Z,4.60
2024-03-06T06:40:53.928Z,4.60
2024-03-06T06:43:20.821Z,4.70
2024-03-06T06:45:54.434Z,4.80
2024-03-06T06:48:22.408Z,4.80
2024-03-06T06:50:49.442Z,4.90
2024-03-06T06:53:16.905Z,5.00
2024-03-06T06:55:43.865Z,5.10
2024-03-06T06:58:11.890Z,5.20
2024-03-06T07:00:38.986Z,5.20
2024-03-06T07:03:06.253Z,5.30
2024-03-06T07:05:33.367Z,5.30
2024-03-06T07:08:00.898Z,5.40
2024-03-06T07:10:28.900Z,5.40
2024-03-06T07:12:55.953Z,5.50
2024-03-06T07:15:23.099Z,5.50
2024-03-06T07:17:50.286Z,5.50
2024-03-06T07:20:18.364Z,5.60
2024-03-06T07:22:52.321Z,5.70
2024-03-06T07:25:19.252Z,5.80
2024-03-06T07:27:46.125Z,5.80
2024-03-06T07:30:14.964Z,5.80
2024-03-06T07:32:42.166Z,5.90
2024-03-06T07:35:09.330Z,5.90
2024-03-06T07:37:37.266Z,6.00
2024-03-06T07:40:06.148Z,6.00
2024-03-06T07:42:34.708Z,6.10
2024-03-06T07:45:02.295Z,6.20
2024-03-06T07:47:29.356Z,6.30
2024-03-06T07:49:56.941Z,6.40
2024-03-06T07:52:23.942Z,6.40
2024-03-06T07:54:52.072Z,6.50
2024-03-06T07:57:19.221Z,6.60
2024-03-06T07:59:46.298Z,6.70
2024-03-06T08:02:13.486Z,6.80
2024-03-06T08:12:49.218Z,7.20
2024-03-06T08:15:16.601Z,7.30
2024-03-06T08:17:44.893Z,7.40
2024-03-06T08:20:12.832Z,7.40
2024-03-06T08:22:41.208Z,7.50
2024-03-06T08:25:09.981Z,7.60
2024-03-06T08:27:38.345Z,7.70
2024-03-06T08:30:06.435Z,7.90
2024-03-06T08:32:37.206Z,8.00
2024-03-06T08:35:14.162Z,8.10
2024-03-06T08:37:43.967Z,8.20
2024-03-06T08:40:16.259Z,8.20
2024-03-06T08:42:43.784Z,8.20
2024-03-06T08:45:11.949Z,8.40
2024-03-06T08:47:39.636Z,8.50
2024-03-06T08:50:09.034Z,8.50
2024-03-06T08:52:36.707Z,8.60
2024-03-06T08:55:07.927Z,8.80
2024-03-06T08:57:36.317Z,8.90
2024-03-06T09:00:04.642Z,9.10
2024-03-06T09:02:31.833Z,9.20
2024-03-06T09:04:59.059Z,9.40
2024-03-06T09:07:27.835Z,9.50
2024-03-06T09:09:54.718Z,9.60
2024-03-06T09:12:21.986Z,9.60
2024-03-06T09:14:49.097Z,9.50
2024-03-06T09:17:16.364Z,9.50
2024-03-06T09:19:55.233Z,9.50
2024-03-06T09:22:30.454Z,9.60
2024-03-06T09:24:57.773Z,9.60
2024-03-06T09:27:26.105Z,9.70
2024-03-06T09:29:53.147Z,9.80
2024-03-06T09:59:40.927Z,11.60
2024-03-06T10:02:20.218Z,12.10
2024-03-06T10:10:18.674Z,16.20
2024-03-06T10:15:22.861Z,19.10
2024-03-06T10:17:52.710Z,20.00
2024-03-06T10:20:21.784Z,21.10
2024-03-06T10:22:57.420Z,22.00
2024-03-06T10:25:28.004Z,22.80
2024-03-06T10:36:12.776Z,22.60
2024-03-06T10:38:42.853Z,22.50
2024-03-06T10:41:21.009Z,23.40
2024-03-06T10:46:31.000Z,25.00
2024-03-06T11:15:22.091Z,28.20
2024-03-06T11:17:50.514Z,28.50
2024-03-06T11:44:57.125Z,29.80
2024-03-06T11:47:26.715Z,29.70
2024-03-06T11:49:55.536Z,28.50
2024-03-06T11:52:22.503Z,28.10
2024-03-06T11:54:49.715Z,28.80
2024-03-06T12:21:56.047Z,24.30
2024-03-06T12:24:23.074Z,26.00
2024-03-06T12:27:04.583Z,27.30
2024-03-06T12:29:33.565Z,28.40
2024-03-06T12:32:01.762Z,28.90
2024-03-06T12:34:29.431Z,29.30
2024-03-06T12:37:30.052Z,29.60
2024-03-06T12:39:56.973Z,30.10
2024-03-06T12:42:29.299Z,30.50
2024-03-06T12:44:56.629Z,30.70
2024-03-06T12:47:23.856Z,30.70
2024-03-06T12:52:19.713Z,28.40
2024-03-06T12:54:46.899Z,26.50
2024-03-06T12:57:14.477Z,25.00
2024-03-06T12:59:42.827Z,24.40
2024-03-06T13:02:11.274Z,24.40
2024-03-06T13:04:38.579Z,23.90
2024-03-06T13:07:05.970Z,23.60
2024-03-06T13:09:33.894Z,22.70
2024-03-06T13:12:01.686Z,21.60
2024-03-06T13:14:29.695Z,20.90
2024-03-06T13:16:57.309Z,20.20
2024-03-06T13:19:24.950Z,19.40
2024-03-06T13:21:52.052Z,18.90
2024-03-06T13:24:19.104Z,18.50
2024-03-06T13:26:49.056Z,18.10
2024-03-06T13:29:16.249Z,17.80
2024-03-06T13:31:43.395Z,17.50
2024-03-06T13:34:10.346Z,17.10
2024-03-06T13:36:37.577Z,16.80
2024-03-06T13:39:07.468Z,16.60
2024-03-06T13:41:34.572Z,16.40
2024-03-06T13:44:01.750Z,16.20
2024-03-06T13:49:42.266Z,15.90
2024-03-06T13:52:11.661Z,15.70
2024-03-06T13:54:43.411Z,15.60
2024-03-06T13:57:10.942Z,15.50
2024-03-06T13:59:39.598Z,15.40
2024-03-06T14:02:07.856Z,15.30
2024-03-06T14:04:35.406Z,15.30
2024-03-06T14:07:04.318Z,15.20
2024-03-06T14:09:31.799Z,15.20
2024-03-06T14:11:59.049Z,15.00
2024-03-06T14:14:27.515Z,15.00
2024-03-06T14:16:56.983Z,14.90
2024-03-06T14:19:26.887Z,14.90
2024-03-06T14:21:53.890Z,14.80
2024-03-06T14:24:22.003Z,14.80
2024-03-06T14:26:50.226Z,14.80
2024-03-06T14:29:17.412Z,14.70
2024-03-06T14:31:44.528Z,14.70
2024-03-06T14:34:11.857Z,14.60
2024-03-06T14:36:40.115Z,14.60
2024-03-06T14:39:08.245Z,14.60
2024-03-06T14:41:35.177Z,14.50
2024-03-06T14:44:02.610Z,14.50
2024-03-06T14:46:30.593Z,14.50
2024-03-06T14:48:57.748Z,14.50
2024-03-06T14:51:24.719Z,14.50
2024-03-06T14:53:52.088Z,14.50
2024-03-06T14:56:19.626Z,14.50
2024-03-06T14:58:46.650Z,14.40
2024-03-06T15:01:14.332Z,14.40
2024-03-06T15:03:41.731Z,14.40
2024-03-06T15:06:09.124Z,14.40
2024-03-06T15:08:36.131Z,14.40
2024-03-06T15:11:04.431Z,14.40
2024-03-06T15:13:31.473Z,14.40
2024-03-06T15:15:58.824Z,14.30
2024-03-06T15:18:26.422Z,14.30
2024-03-06T15:20:54.099Z,14.30
2024-03-06T15:23:21.903Z,14.30
2024-03-06T15:25:49.706Z,14.30
2024-03-06T15:28:16.884Z,14.30
2024-03-06T15:30:45.524Z,14.20
2024-03-06T15:33:12.632Z,14.20
2024-03-06T15:35:39.884Z,14.10
2024-03-06T15:38:07.503Z,14.10
2024-03-06T15:40:34.457Z,14.10
2024-03-06T15:43:04.250Z,14.10
2024-03-06T15:45:31.766Z,14.00
2024-03-06T15:47:58.699Z,13.80
2024-03-06T15:50:25.611Z,13.70
2024-03-06T15:52:52.566Z,13.50
2024-03-06T15:55:19.630Z,13.40
2024-03-06T15:57:47.658Z,13.20
2024-03-06T16:00:17.415Z,13.20
2024-03-06T16:02:45.742Z,13.10
2024-03-06T16:05:12.949Z,13.00
2024-03-06T16:07:47.259Z,12.90
2024-03-06T16:10:18.868Z,12.80
2024-03-06T16:12:45.955Z,12.60
2024-03-06T16:15:12.974Z,12.50
2024-03-06T16:17:40.285Z,12.40
2024-03-06T16:22:45.176Z,12.20
2024-03-06T16:25:12.405Z,12.10
2024-03-06T16:27:39.544Z,12.10
2024-03-06T16:30:09.880Z,12.00
2024-03-06T16:32:37.172Z,12.00
2024-03-06T16:35:05.398Z,11.80
2024-03-06T16:37:32.672Z,11.80
2024-03-06T16:39:59.899Z,11.70
2024-03-06T16:42:26.837Z,11.60
2024-03-06T16:44:53.712Z,11.50
2024-03-06T16:47:20.738Z,11.40
2024-03-06T16:49:47.701Z,11.40
2024-03-06T16:52:14.732Z,11.30
2024-03-06T16:54:43.260Z,11.20
2024-03-06T16:57:12.495Z,11.20
2024-03-06T16:59:39.707Z,11.10
2024-03-06T17:02:06.953Z,11.00
2024-03-06T17:04:33.952Z,11.00
2024-03-06T17:07:03.310Z,11.00
2024-03-06T17:09:30.215Z,10.90
2024-03-06T17:11:57.347Z,10.90
2024-03-06T17:14:24.417Z,10.90
2024-03-06T17:16:51.516Z,10.80
2024-03-06T17:19:18.427Z,10.80
2024-03-06T17:21:45.451Z,10.70
2024-03-06T17:24:13.689Z,10.70
2024-03-06T17:26:41.597Z,10.60
2024-03-06T17:29:08.855Z,10.60
2024-03-06T17:31:39.253Z,10.50
2024-03-06T17:34:07.486Z,10.40
2024-03-06T17:36:37.345Z,10.40
2024-03-06T17:39:07.438Z,10.30
2024-03-06T17:41:34.389Z,10.20
2024-03-06T17:44:03.056Z,10.10
2024-03-06T17:46:34.288Z,10.00
2024-03-06T17:49:07.434Z,10.00
2024-03-06T17:51:42.567Z,9.90
2024-03-06T17:54:16.991Z,9.80
2024-03-06T17:56:47.409Z,9.70
2024-03-06T17:59:14.502Z,9.70
2024-03-06T18:01:43.271Z,9.60
2024-03-06T18:04:12.548Z,9.50
2024-03-06T18:06:41.696Z,9.40
2024-03-06T18:09:16.473Z,9.40
2024-03-06T18:11:45.520Z,9.30
2024-03-06T18:14:18.961Z,9.20
2024-03-06T18:16:47.787Z,9.20
2024-03-06T18:19:15.479Z,9.10
2024-03-06T18:21:47.991Z,9.10
2024-03-06T18:24:15.983Z,9.00
2024-03-06T18:26:43.751Z,9.00
2024-03-06T18:29:12.530Z,8.90
2024-03-06T18:31:39.694Z,8.90
2024-03-06T18:34:08.475Z,8.80
2024-03-06T18:36:36.164Z,8.80
2024-03-06T18:39:03.419Z,8.70
2024-03-06T18:41:42.293Z,8.70
2024-03-06T18:44:12.243Z,8.60
2024-03-06T18:46:41.089Z,8.60
2024-03-06T18:49:09.105Z,8.60
2024-03-06T18:51:40.598Z,8.60
2024-03-06T18:54:08.729Z,8.60
2024-03-06T18:56:38.518Z,8.50
2024-03-06T18:59:08.331Z,8.50
2024-03-06T19:01:41.526Z,8.50
2024-03-06T19:04:18.090Z,8.40
2024-03-06T19:06:47.927Z,8.40
2024-03-06T19:09:18.083Z,8.40
2024-03-06T19:11:48.153Z,8.40
2024-03-06T19:14:15.792Z,8.30
2024-03-06T19:16:44.452Z,8.20
2024-03-06T19:21:55.663Z,8.20
2024-03-06T19:24:23.111Z,8.20
2024-03-06T19:26:52.094Z,8.10
2024-03-06T19:29:19.956Z,8.10
2024-03-06T19:31:51.345Z,8.00
2024-03-06T19:34:27.031Z,7.90
2024-03-06T19:36:56.569Z,7.90
2024-03-06T19:39:27.394Z,7.80
2024-03-06T19:41:58.743Z,7.80
2024-03-06T19:44:28.198Z,7.70
2024-03-06T19:46:57.185Z,7.70
2024-03-06T19:49:28.114Z,7.70
2024-03-06T19:51:56.916Z,7.70
2024-03-06T19:54:23.987Z,7.70
2024-03-06T19:56:53.326Z,7.60
2024-03-06T19:59:21.313Z,7.60
2024-03-06T20:01:48.275Z,7.50
2024-03-06T20:04:15.386Z,7.50
2024-03-06T20:06:42.412Z,7.40
2024-03-06T20:09:10.126Z,7.40
2024-03-06T20:11:37.311Z,7.30
2024-03-06T20:14:04.720Z,7.30
2024-03-06T20:16:34.445Z,7.30
2024-03-06T20:19:01.709Z,7.20
2024-03-06T20:21:28.668Z,7.20
2024-03-06T20:23:56.118Z,7.10
2024-03-06T20:26:23.506Z,7.10
2024-03-06T20:29:03.859Z,7.10
2024-03-06T20:31:32.379Z,7.10
2024-03-06T20:33:59.480Z,7.00
2024-03-06T20:36:27.150Z,6.90
2024-03-06T20:38:55.636Z,6.90
2024-03-06T20:41:23.231Z,6.90
2024-03-06T20:43:52.162Z,6.80
2024-03-06T20:46:19.511Z,6.80
2024-03-06T20:48:48.357Z,6.70
2024-03-06T20:51:15.607Z,6.70
2024-03-06T20:53:43.350Z,6.70
2024-03-06T20:56:10.530Z,6.60
2024-03-06T20:58:37.548Z,6.60
2024-03-06T21:01:05.716Z,6.60
2024-03-06T21:03:34.617Z,6.50
2024-03-06T21:06:01.981Z,6.40
2024-03-06T21:08:30.058Z,6.40
2024-03-06T21:10:59.188Z,6.30
2024-03-06T21:13:27.301Z,6.30
2024-03-06T21:15:54.402Z,6.20
2024-03-06T21:18:22.157Z,6.20
2024-03-06T21:20:51.539Z,6.20
2024-03-06T21:23:18.956Z,6.10
2024-03-06T21:25:46.047Z,6.00
2024-03-06T21:28:15.682Z,6.00
2024-03-06T21:30:43.240Z,5.90
2024-03-06T21:33:15.144Z,5.80
2024-03-06T21:35:42.328Z,5.70
2024-03-06T21:38:09.567Z,5.70
2024-03-06T21:40:38.061Z,5.70
2024-03-06T21:43:05.154Z,5.70
2024-03-06T21:45:35.126Z,5.70
2024-03-06T21:48:02.452Z,5.60
2024-03-06T21:50:29.693Z,5.50
2024-03-06T21:52:58.907Z,5.50
2024-03-06T21:55:27.097Z,5.40
2024-03-06T21:57:54.061Z,5.30
2024-03-06T22:00:24.208Z,5.40
2024-03-06T22:02:51.483Z,5.30
2024-03-06T22:05:18.816Z,5.20
2024-03-06T22:07:46.771Z,5.20
2024-03-06T22:10:15.112Z,5.10
2024-03-06T22:12:42.763Z,5.00
2024-03-06T22:15:10.411Z,5.00
2024-03-06T22:17:38.336Z,4.90
2024-03-06T22:20:07.570Z,4.90
2024-03-06T22:22:34.628Z,4.80
2024-03-06T22:25:02.132Z,4.80
2024-03-06T22:27:29.197Z,4.70
2024-03-06T22:29:56.347Z,4.70
2024-03-06T22:32:23.536Z,4.60
2024-03-06T22:34:50.558Z,4.60
2024-03-06T22:37:20.803Z,4.50
2024-03-06T22:39:47.836Z,4.50
2024-03-06T22:42:14.952Z,4.40
2024-03-06T22:44:42.153Z,4.40
2024-03-06T22:47:09.708Z,4.30
2024-03-06T22:49:37.144Z,4.30
2024-03-06T22:52:05.437Z,4.30
2024-03-06T22:54:33.134Z,4.30
2024-03-06T22:57:03.508Z,4.20
2024-03-06T22:59:34.028Z,4.20
2024-03-06T23:02:01.594Z,4.10
2024-03-06T23:04:28.481Z,4.10
2024-03-06T23:06:56.688Z,4.10
2024-03-06T23:09:23.985Z,4.00
2024-03-06T23:11:51.281Z,4.00
2024-03-06T23:14:19.007Z,3.90
2024-03-06T23:16:46.455Z,3.90
2024-03-06T23:19:14.598Z,3.90
2024-03-06T23:21:41.758Z,3.80
2024-03-06T23:24:08.748Z,3.80
2024-03-06T23:26:35.897Z,3.80
2024-03-06T23:29:05.114Z,3.70
2024-03-06T23:31:32.395Z,3.70
2024-03-06T23:34:00.539Z,3.70
2024-03-06T23:36:27.595Z,3.70
2024-03-06T23:38:54.735Z,3.70
2024-03-06T23:41:22.131Z,3.70
2024-03-06T23:43:49.152Z,3.60
2024-03-06T23:46:16.286Z,3.60
2024-03-06T23:48:43.346Z,3.50
2024-03-06T23:51:10.432Z,3.50
2024-03-06T23:53:37.484Z,3.50
2024-03-06T23:56:04.915Z,3.50
2024-03-06T23:58:32.040Z,3.40
